Time;durP1;ratioP1;P1;durP2;ratioP2;P2;SDS_P1;SDS_P2;PMS_P1;PMS_P2;Temp;Humidity;BMP_temperature;BMP_pressure;BME280_temperature;BME280_humidity;BME280_pressure;Samples;Min_cycle;Max_cycle;Signal;HPM_P1;HPM_P2
2021/04/20 00:00:02;;;;;;;121.43;53.60;;;;;;;;;;735038;189;917558;-65
2021/04/20 00:02:30;;;;;;;136.57;56.27;;;;;;;;;;728104;189;919394;-69
2021/04/20 00:04:56;;;;;;;115.87;55.10;;;;;;;;;;734266;189;919388;-65
2021/04/20 00:07:22;;;;;;;117.53;51.37;;;;;;;;;;734318;189;914645;-65
2021/04/20 00:09:47;;;;;;;116.03;51.17;;;;;;;;;;735451;189;915546;-65
2021/04/20 00:12:13;;;;;;;105.67;50.47;;;;;;;;;;739077;189;916807;-65
2021/04/20 00:14:39;;;;;;;130.60;52.57;;;;;;;;;;732460;189;996008;-65
2021/04/20 00:17:05;;;;;;;115.07;48.20;;;;;;;;;;738130;189;919769;-64
2021/04/20 00:19:31;;;;;;;128.40;53.00;;;;;;;;;;732001;189;919340;-64
2021/04/20 00:21:57;;;;;;;108.87;48.50;;;;;;;;;;733722;188;919239;-64
2021/04/20 00:24:22;;;;;;;114.93;49.97;;;;;;;;;;737403;189;919461;-64
2021/04/20 00:26:48;;;;;;;116.07;50.77;;;;;;;;;;730667;189;919707;-65
2021/04/20 00:29:14;;;;;;;130.07;50.50;;;;;;;;;;732719;189;919708;-64
2021/04/20 00:31:40;;;;;;;116.67;52.83;;;;;;;;;;744166;189;629042;-65
2021/04/20 00:34:06;;;;;;;118.37;48.28;;;;;;;;;;734292;189;1669769;-64
2021/04/20 00:36:32;;;;;;;114.17;47.00;;;;;;;;;;741604;189;617850;-65
2021/04/20 00:38:58;;;;;;;116.57;49.63;;;;;;;;;;738015;189;919541;-65
2021/04/20 00:41:24;;;;;;;130.63;53.90;;;;;;;;;;739587;189;919351;-64
2021/04/20 00:43:49;;;;;;;136.90;55.83;;;;;;;;;;733011;189;918878;-64
2021/04/20 00:46:15;;;;;;;118.93;50.27;;;;;;;;;;740199;189;932547;-64
2021/04/20 00:48:41;;;;;;;131.10;53.73;;;;;;;;;;728364;189;919398;-64
2021/04/20 00:51:07;;;;;;;119.97;49.70;;;;;;;;;;728822;189;918869;-65
2021/04/20 00:53:33;;;;;;;121.67;50.63;;;;;;;;;;736442;189;917709;-64
2021/04/20 00:55:58;;;;;;;140.67;51.47;;;;;;;;;;735392;189;1323988;-64
2021/04/20 00:58:24;;;;;;;135.77;55.87;;;;;;;;;;732068;189;920035;-64
2021/04/20 01:00:50;;;;;;;132.32;54.67;;;;;;;;;;735959;189;920234;-65
2021/04/20 01:03:16;;;;;;;138.70;54.87;;;;;;;;;;741559;189;919873;-65
2021/04/20 01:05:42;;;;;;;138.97;55.37;;;;;;;;;;734706;189;922321;-65
2021/04/20 01:08:08;;;;;;;140.97;53.87;;;;;;;;;;733584;189;919365;-65
2021/04/20 01:10:34;;;;;;;158.63;58.77;;;;;;;;;;734874;189;918471;-64
2021/04/20 01:12:59;;;;;;;132.47;54.67;;;;;;;;;;737779;189;919651;-65
2021/04/20 01:15:25;;;;;;;142.17;53.90;;;;;;;;;;733430;189;920504;-64
2021/04/20 01:17:51;;;;;;;135.98;54.17;;;;;;;;;;733912;189;930373;-64
2021/04/20 01:20:17;;;;;;;123.37;50.37;;;;;;;;;;745055;186;919526;-65
2021/04/20 01:22:43;;;;;;;125.50;51.58;;;;;;;;;;734200;189;919101;-65
2021/04/20 01:25:09;;;;;;;120.63;52.73;;;;;;;;;;736611;189;920489;-65
2021/04/20 01:27:34;;;;;;;126.73;52.70;;;;;;;;;;736013;189;919421;-65
2021/04/20 01:30:00;;;;;;;123.93;52.43;;;;;;;;;;727713;189;928340;-65
2021/04/20 01:32:26;;;;;;;135.70;56.20;;;;;;;;;;729932;189;918684;-65
2021/04/20 01:34:52;;;;;;;123.20;55.77;;;;;;;;;;742441;188;918221;-65
2021/04/20 01:37:18;;;;;;;146.23;58.10;;;;;;;;;;737741;189;917544;-65
2021/04/20 01:39:44;;;;;;;141.20;56.40;;;;;;;;;;732736;189;1017328;-65
2021/04/20 01:42:10;;;;;;;140.77;59.80;;;;;;;;;;739840;189;1026171;-66
2021/04/20 01:44:35;;;;;;;155.50;58.07;;;;;;;;;;740095;189;1025222;-65
2021/04/20 01:47:01;;;;;;;153.20;60.43;;;;;;;;;;734907;189;918480;-65
2021/04/20 01:49:27;;;;;;;143.90;61.33;;;;;;;;;;736106;189;920005;-65
2021/04/20 01:51:53;;;;;;;136.60;58.37;;;;;;;;;;738642;189;915611;-65
2021/04/20 01:54:19;;;;;;;147.47;61.27;;;;;;;;;;728130;189;916564;-68
2021/04/20 01:56:45;;;;;;;147.07;60.77;;;;;;;;;;730913;189;916349;-65
2021/04/20 01:59:11;;;;;;;156.67;64.67;;;;;;;;;;740670;189;916601;-65
2021/04/20 02:01:37;;;;;;;149.13;68.20;;;;;;;;;;738358;189;915716;-65
2021/04/20 02:04:03;;;;;;;169.48;68.60;;;;;;;;;;733073;189;922124;-65
2021/04/20 02:06:29;;;;;;;166.70;69.77;;;;;;;;;;743608;189;919688;-65
2021/04/20 02:08:54;;;;;;;153.43;66.40;;;;;;;;;;735974;189;918910;-65
2021/04/20 02:11:20;;;;;;;154.47;61.73;;;;;;;;;;735850;189;918968;-66
2021/04/20 02:13:46;;;;;;;166.63;70.07;;;;;;;;;;734257;189;1021587;-65
2021/04/20 02:16:12;;;;;;;159.00;69.27;;;;;;;;;;741341;189;919396;-65
2021/04/20 02:18:39;;;;;;;174.33;72.13;;;;;;;;;;731046;189;919104;-65
2021/04/20 02:21:05;;;;;;;160.97;63.33;;;;;;;;;;732418;189;919400;-65
2021/04/20 02:23:31;;;;;;;125.30;56.97;;;;;;;;;;729728;189;1370235;-66
2021/04/20 02:25:56;;;;;;;165.30;68.97;;;;;;;;;;729327;189;919443;-65
2021/04/20 02:28:22;;;;;;;165.55;67.95;;;;;;;;;;729668;189;920612;-64
2021/04/20 02:30:48;;;;;;;131.03;55.30;;;;;;;;;;734758;189;919961;-64
2021/04/20 02:33:14;;;;;;;138.57;60.50;;;;;;;;;;730848;189;919445;-70
2021/04/20 02:35:40;;;;;;;132.30;56.67;;;;;;;;;;735137;189;917918;-64
2021/04/20 02:38:06;;;;;;;166.20;60.23;;;;;;;;;;736387;189;918922;-66
2021/04/20 02:40:31;;;;;;;135.87;55.93;;;;;;;;;;735011;189;919071;-64
2021/04/20 02:42:57;;;;;;;153.43;59.50;;;;;;;;;;735349;189;919388;-66
2021/04/20 02:45:23;;;;;;;154.93;64.57;;;;;;;;;;735789;188;918848;-64
2021/04/20 02:47:49;;;;;;;147.07;62.10;;;;;;;;;;745802;189;919053;-65
2021/04/20 02:50:15;;;;;;;176.57;62.75;;;;;;;;;;733418;189;948894;-65
2021/04/20 02:52:41;;;;;;;149.73;68.43;;;;;;;;;;735510;189;920950;-64
2021/04/20 02:55:07;;;;;;;131.83;59.50;;;;;;;;;;741271;189;919090;-64
2021/04/20 02:57:33;;;;;;;138.23;57.53;;;;;;;;;;738753;189;918312;-64
2021/04/20 02:59:59;;;;;;;143.43;57.88;;;;;;;;;;731914;189;919427;-64
2021/04/20 03:02:25;;;;;;;130.63;61.50;;;;;;;;;;741311;189;918254;-66
2021/04/20 03:04:51;;;;;;;140.97;59.03;;;;;;;;;;735549;189;919369;-65
2021/04/20 03:07:16;;;;;;;151.93;60.35;;;;;;;;;;739962;189;623546;-67
2021/04/20 03:09:42;;;;;;;131.33;56.27;;;;;;;;;;727995;189;1970010;-66
2021/04/20 03:12:09;;;;;;;118.83;53.20;;;;;;;;;;741235;189;621568;-65
2021/04/20 03:14:34;;;;;;;134.10;56.90;;;;;;;;;;738568;189;625429;-65
2021/04/20 03:17:00;;;;;;;126.73;51.63;;;;;;;;;;733379;189;918531;-65
2021/04/20 03:19:26;;;;;;;123.37;51.03;;;;;;;;;;737028;189;919073;-65
2021/04/20 03:21:52;;;;;;;112.30;53.87;;;;;;;;;;727164;189;919549;-65
2021/04/20 03:24:21;;;;;;;121.93;57.65;;;;;;;;;;733943;189;919059;-66
2021/04/20 03:26:47;;;;;;;132.33;51.77;;;;;;;;;;736520;189;919202;-67
2021/04/20 03:29:12;;;;;;;129.03;49.83;;;;;;;;;;722046;190;918906;-64
2021/04/20 03:31:38;;;;;;;131.60;55.97;;;;;;;;;;731974;189;1151343;-66
2021/04/20 03:34:05;;;;;;;110.72;49.47;;;;;;;;;;732486;189;918805;-65
2021/04/20 03:36:31;;;;;;;131.93;54.93;;;;;;;;;;738697;189;919321;-66
2021/04/20 03:38:58;;;;;;;140.13;66.00;;;;;;;;;;735240;189;919430;-65
2021/04/20 03:41:25;;;;;;;126.30;53.87;;;;;;;;;;730123;189;920008;-65
2021/04/20 03:43:51;;;;;;;150.57;71.50;;;;;;;;;;740036;189;899102;-66
2021/04/20 03:46:17;;;;;;;147.40;72.43;;;;;;;;;;735843;189;921905;-66
2021/04/20 03:48:43;;;;;;;132.60;58.13;;;;;;;;;;735666;189;918545;-65
2021/04/20 03:51:10;;;;;;;128.83;50.17;;;;;;;;;;737043;189;918217;-63
2021/04/20 03:53:36;;;;;;;128.90;66.20;;;;;;;;;;734466;189;919282;-66
2021/04/20 03:56:02;;;;;;;137.87;56.07;;;;;;;;;;730982;188;919361;-65
2021/04/20 03:58:28;;;;;;;127.30;57.33;;;;;;;;;;736821;189;892247;-66
2021/04/20 04:00:54;;;;;;;202.67;96.93;;;;;;;;;;744520;189;919462;-66
2021/04/20 04:03:20;;;;;;;134.00;61.73;;;;;;;;;;737975;189;919431;-65
2021/04/20 04:05:45;;;;;;;173.33;83.20;;;;;;;;;;740888;189;919421;-65
2021/04/20 04:08:11;;;;;;;175.53;85.83;;;;;;;;;;740057;189;918799;-66
2021/04/20 04:10:37;;;;;;;145.80;69.60;;;;;;;;;;713795;189;4503565;-66
2021/04/20 04:13:03;;;;;;;141.70;62.57;;;;;;;;;;732445;189;917498;-64
2021/04/20 04:15:30;;;;;;;180.23;76.33;;;;;;;;;;738702;189;919361;-65
2021/04/20 04:17:56;;;;;;;200.20;94.27;;;;;;;;;;736188;189;919836;-65
2021/04/20 04:20:21;;;;;;;191.10;76.30;;;;;;;;;;732701;188;913995;-65
2021/04/20 04:22:51;;;;;;;227.47;97.90;;;;;;;;;;730500;189;914951;-64
2021/04/20 04:25:17;;;;;;;170.40;69.53;;;;;;;;;;743168;189;915075;-65
2021/04/20 04:27:43;;;;;;;188.43;79.70;;;;;;;;;;734459;189;950120;-69
2021/04/20 04:30:09;;;;;;;244.70;108.77;;;;;;;;;;734932;189;919249;-64
2021/04/20 04:32:35;;;;;;;189.53;77.10;;;;;;;;;;738622;189;920593;-65
2021/04/20 04:35:01;;;;;;;161.93;64.93;;;;;;;;;;730410;189;918931;-65
2021/04/20 04:37:27;;;;;;;181.03;71.97;;;;;;;;;;736055;189;919004;-65
2021/04/20 04:39:53;;;;;;;175.63;73.07;;;;;;;;;;732975;189;919486;-64
2021/04/20 04:42:19;;;;;;;167.05;63.80;;;;;;;;;;740939;189;917218;-65
2021/04/20 04:44:45;;;;;;;153.87;66.63;;;;;;;;;;733331;189;919710;-65
2021/04/20 04:47:12;;;;;;;144.77;62.67;;;;;;;;;;733758;189;920434;-65
2021/04/20 04:49:37;;;;;;;135.83;59.93;;;;;;;;;;736057;189;920057;-65
2021/04/20 04:52:03;;;;;;;140.43;64.70;;;;;;;;;;736881;189;920164;-65
2021/04/20 04:54:31;;;;;;;150.07;64.00;;;;;;;;;;733639;189;1002042;-65
2021/04/20 04:56:57;;;;;;;135.63;57.83;;;;;;;;;;739254;189;1021210;-67
2021/04/20 04:59:22;;;;;;;139.67;60.07;;;;;;;;;;732085;189;1335135;-67
2021/04/20 05:01:48;;;;;;;132.50;56.83;;;;;;;;;;735991;189;919609;-67
2021/04/20 05:04:14;;;;;;;143.60;66.17;;;;;;;;;;725890;189;919764;-66
2021/04/20 05:06:45;;;;;;;153.60;67.70;;;;;;;;;;739506;189;838880;-67
2021/04/20 05:09:12;;;;;;;154.57;60.53;;;;;;;;;;737657;187;920079;-67
2021/04/20 05:11:40;;;;;;;153.38;60.72;;;;;;;;;;731151;188;919040;-66
2021/04/20 05:14:06;;;;;;;151.13;71.70;;;;;;;;;;734307;189;920262;-66
2021/04/20 05:16:31;;;;;;;145.60;62.43;;;;;;;;;;736560;189;919308;-66
2021/04/20 05:19:00;;;;;;;127.07;56.87;;;;;;;;;;737645;189;919419;-66
2021/04/20 05:21:26;;;;;;;134.97;59.90;;;;;;;;;;735072;189;920654;-66
2021/04/20 05:23:53;;;;;;;131.30;58.00;;;;;;;;;;738724;189;919935;-66
2021/04/20 05:26:19;;;;;;;142.10;56.60;;;;;;;;;;732366;189;920565;-66
2021/04/20 05:28:44;;;;;;;147.63;60.87;;;;;;;;;;729804;189;919577;-66
2021/04/20 05:31:10;;;;;;;135.07;59.20;;;;;;;;;;735288;189;918151;-66
2021/04/20 05:33:36;;;;;;;131.98;59.80;;;;;;;;;;731994;189;919245;-65
2021/04/20 05:36:06;;;;;;;128.30;55.13;;;;;;;;;;727370;189;918880;-65
2021/04/20 05:38:32;;;;;;;155.23;66.83;;;;;;;;;;735260;189;918606;-65
2021/04/20 05:40:58;;;;;;;129.97;59.83;;;;;;;;;;738392;189;999310;-65
2021/04/20 05:43:24;;;;;;;155.87;59.97;;;;;;;;;;737452;189;916160;-66
2021/04/20 05:45:49;;;;;;;151.80;61.50;;;;;;;;;;725500;189;916196;-66
2021/04/20 05:48:16;;;;;;;123.77;59.90;;;;;;;;;;737715;189;915325;-66
2021/04/20 05:50:41;;;;;;;140.20;58.37;;;;;;;;;;736545;189;919770;-65
2021/04/20 05:53:07;;;;;;;145.70;64.93;;;;;;;;;;727675;189;918846;-65
2021/04/20 05:55:33;;;;;;;162.37;66.80;;;;;;;;;;738894;189;911659;-65
2021/04/20 05:57:59;;;;;;;177.67;87.93;;;;;;;;;;735036;189;943241;-66
2021/04/20 06:00:25;;;;;;;151.30;60.20;;;;;;;;;;736689;189;919390;-66
2021/04/20 06:02:51;;;;;;;129.83;59.00;;;;;;;;;;732731;189;919460;-65
2021/04/20 06:05:17;;;;;;;134.60;56.83;;;;;;;;;;745283;186;1006890;-66
2021/04/20 06:07:44;;;;;;;122.62;55.38;;;;;;;;;;733744;189;919654;-69
2021/04/20 06:10:10;;;;;;;154.27;59.50;;;;;;;;;;734765;189;917544;-66
2021/04/20 06:12:36;;;;;;;123.53;58.47;;;;;;;;;;739447;189;919266;-66
2021/04/20 06:15:02;;;;;;;138.07;64.93;;;;;;;;;;737811;189;919462;-65
2021/04/20 06:17:28;;;;;;;136.67;62.70;;;;;;;;;;730493;189;919552;-66
2021/04/20 06:19:54;;;;;;;120.83;59.20;;;;;;;;;;740959;188;919598;-66
2021/04/20 06:22:20;;;;;;;118.13;55.93;;;;;;;;;;733326;189;918520;-66
2021/04/20 06:24:45;;;;;;;148.80;70.45;;;;;;;;;;741588;189;921027;-65
2021/04/20 06:27:13;;;;;;;129.23;53.50;;;;;;;;;;737638;189;920267;-66
2021/04/20 06:29:39;;;;;;;134.63;53.30;;;;;;;;;;744062;186;919237;-65
2021/04/20 06:32:05;;;;;;;129.68;57.20;;;;;;;;;;736907;189;939778;-65
2021/04/20 06:34:31;;;;;;;126.40;55.67;;;;;;;;;;708156;189;5218779;-67
2021/04/20 06:36:56;;;;;;;130.73;59.77;;;;;;;;;;741742;189;919531;-65
2021/04/20 06:39:22;;;;;;;113.30;51.30;;;;;;;;;;733816;189;919316;-66
2021/04/20 06:41:48;;;;;;;125.83;56.53;;;;;;;;;;736493;189;1021326;-66
2021/04/20 06:44:19;;;;;;;107.30;50.53;;;;;;;;;;735522;189;918984;-65
2021/04/20 06:46:47;;;;;;;121.07;51.60;;;;;;;;;;737360;189;919101;-66
2021/04/20 06:49:13;;;;;;;112.27;51.03;;;;;;;;;;739787;189;635176;-65
2021/04/20 06:51:39;;;;;;;88.77;44.97;;;;;;;;;;737706;189;918871;-65
2021/04/20 06:54:05;;;;;;;101.73;47.40;;;;;;;;;;735480;189;1042410;-66
2021/04/20 06:56:33;;;;;;;89.23;44.00;;;;;;;;;;736504;189;921006;-66
2021/04/20 06:59:02;;;;;;;87.33;43.90;;;;;;;;;;731073;189;1123311;-66
2021/04/20 07:01:33;;;;;;;92.37;46.50;;;;;;;;;;732757;189;919358;-65
2021/04/20 07:04:05;;;;;;;99.43;49.42;;;;;;;;;;742957;189;919434;-65
2021/04/20 07:06:31;;;;;;;130.23;69.60;;;;;;;;;;733463;189;919730;-66
2021/04/20 07:08:59;;;;;;;100.53;47.72;;;;;;;;;;730024;189;919252;-67
2021/04/20 07:11:24;;;;;;;98.40;50.73;;;;;;;;;;732970;189;917984;-67
2021/04/20 07:13:50;;;;;;;98.47;47.97;;;;;;;;;;733404;189;918973;-66
2021/04/20 07:16:18;;;;;;;100.23;45.00;;;;;;;;;;732595;189;1107853;-66
2021/04/20 07:18:50;;;;;;;77.45;45.33;;;;;;;;;;735331;189;919539;-65
2021/04/20 07:21:22;;;;;;;79.82;41.53;;;;;;;;;;738033;189;624147;-65
2021/04/20 07:23:50;;;;;;;87.90;46.65;;;;;;;;;;740836;189;919507;-66
2021/04/20 07:26:17;;;;;;;74.77;42.20;;;;;;;;;;734345;189;920285;-65
2021/04/20 07:28:45;;;;;;;84.57;45.27;;;;;;;;;;733318;189;918780;-67
2021/04/20 07:31:28;;;;;;;79.72;42.25;;;;;;;;;;736712;187;919974;-64
2021/04/20 07:34:11;;;;;;;79.50;41.00;;;;;;;;;;724904;189;919430;-65
2021/04/20 07:36:56;;;;;;;102.93;48.50;;;;;;;;;;729641;189;1239697;-64
2021/04/20 07:39:18;;;;;;;128.20;69.23;;;;;;;;;;740542;189;920178;-65
2021/04/20 07:41:44;;;;;;;70.70;44.07;;;;;;;;;;737590;189;918107;-67
2021/04/20 07:44:14;;;;;;;77.80;44.87;;;;;;;;;;734823;189;920328;-65
2021/04/20 07:46:40;;;;;;;80.10;42.37;;;;;;;;;;731183;189;918443;-65
2021/04/20 07:49:12;;;;;;;95.80;48.10;;;;;;;;;;740613;189;901173;-65
2021/04/20 07:51:55;;;;;;;64.33;39.60;;;;;;;;;;730714;189;913624;-65
2021/04/20 07:54:27;;;;;;;108.67;53.90;;;;;;;;;;723869;190;920223;-67
2021/04/20 07:56:55;;;;;;;81.77;38.80;;;;;;;;;;733967;189;915771;-64
2021/04/20 07:59:21;;;;;;;77.03;42.57;;;;;;;;;;738100;189;921774;-65
2021/04/20 08:01:51;;;;;;;57.37;34.70;;;;;;;;;;736963;189;915161;-64
2021/04/20 08:04:21;;;;;;;76.50;47.13;;;;;;;;;;738211;189;919618;-66
2021/04/20 08:06:47;;;;;;;69.77;38.50;;;;;;;;;;733221;189;919821;-65
2021/04/20 08:09:13;;;;;;;71.37;42.90;;;;;;;;;;737214;189;920200;-64
2021/04/20 08:11:41;;;;;;;63.33;39.00;;;;;;;;;;737370;189;919386;-64
2021/04/20 08:14:09;;;;;;;58.37;36.37;;;;;;;;;;733921;189;919526;-65
2021/04/20 08:16:38;;;;;;;66.57;37.20;;;;;;;;;;731854;189;920068;-65
2021/04/20 08:19:05;;;;;;;60.30;35.03;;;;;;;;;;733260;189;920422;-65
2021/04/20 08:21:31;;;;;;;67.97;40.00;;;;;;;;;;740259;189;918337;-65
2021/04/20 08:23:58;;;;;;;59.53;32.23;;;;;;;;;;732240;189;918156;-65
2021/04/20 08:26:23;;;;;;;52.28;33.20;;;;;;;;;;734984;189;918194;-66
2021/04/20 08:28:55;;;;;;;56.00;34.47;;;;;;;;;;737192;189;918147;-65
2021/04/20 08:31:22;;;;;;;58.90;33.90;;;;;;;;;;736859;189;920137;-65
2021/04/20 08:33:47;;;;;;;51.73;33.03;;;;;;;;;;730247;189;919048;-64
2021/04/20 08:36:29;;;;;;;50.90;29.17;;;;;;;;;;733917;189;917596;-64
2021/04/20 08:38:58;;;;;;;61.20;36.40;;;;;;;;;;728433;189;915777;-65
2021/04/20 08:41:25;;;;;;;47.43;31.87;;;;;;;;;;738470;189;914614;-65
2021/04/20 08:43:54;;;;;;;48.93;30.73;;;;;;;;;;735205;188;977889;-64
2021/04/20 08:46:29;;;;;;;49.40;32.47;;;;;;;;;;735669;189;919294;-64
2021/04/20 08:48:56;;;;;;;46.30;28.13;;;;;;;;;;731051;189;1021620;-64
2021/04/20 08:51:25;;;;;;;44.47;30.33;;;;;;;;;;741775;189;992214;-64
2021/04/20 08:53:51;;;;;;;49.77;31.47;;;;;;;;;;736753;189;928483;-64
2021/04/20 08:56:18;;;;;;;45.20;29.20;;;;;;;;;;735821;189;919860;-65
2021/04/20 08:59:00;;;;;;;53.17;31.50;;;;;;;;;;733802;189;920303;-65
2021/04/20 09:01:32;;;;;;;39.27;26.83;;;;;;;;;;730708;189;920228;-65
2021/04/20 09:04:03;;;;;;;40.83;26.93;;;;;;;;;;738275;189;919983;-66
2021/04/20 09:06:32;;;;;;;43.53;27.93;;;;;;;;;;736227;189;919722;-66
2021/04/20 09:09:06;;;;;;;38.60;28.10;;;;;;;;;;733825;189;919282;-65
2021/04/20 09:11:32;;;;;;;39.13;26.37;;;;;;;;;;736522;189;921753;-65
2021/04/20 09:13:59;;;;;;;39.63;27.17;;;;;;;;;;738857;189;922608;-65
2021/04/20 09:16:25;;;;;;;36.60;26.90;;;;;;;;;;736553;189;919513;-65
2021/04/20 09:18:51;;;;;;;33.53;25.00;;;;;;;;;;735348;189;918514;-67
2021/04/20 09:21:17;;;;;;;41.13;28.57;;;;;;;;;;729339;188;924088;-66
2021/04/20 09:23:45;;;;;;;29.07;21.97;;;;;;;;;;737437;189;921261;-66
2021/04/20 09:26:29;;;;;;;33.22;24.27;;;;;;;;;;731541;189;920133;-67
2021/04/20 09:28:59;;;;;;;33.10;21.73;;;;;;;;;;723084;190;921541;-65
2021/04/20 09:31:28;;;;;;;33.97;21.90;;;;;;;;;;733543;189;1117886;-64
2021/04/20 09:33:54;;;;;;;38.00;23.67;;;;;;;;;;732951;189;915602;-65
2021/04/20 09:36:20;;;;;;;41.80;23.07;;;;;;;;;;732192;189;915691;-66
2021/04/20 09:38:46;;;;;;;40.13;22.30;;;;;;;;;;732896;189;920067;-65
2021/04/20 09:41:11;;;;;;;25.60;18.60;;;;;;;;;;733133;189;915147;-66
2021/04/20 09:43:52;;;;;;;43.07;16.70;;;;;;;;;;742639;189;920598;-63
2021/04/20 09:46:18;;;;;;;31.23;18.50;;;;;;;;;;732301;189;919185;-66
2021/04/20 09:48:59;;;;;;;25.50;19.13;;;;;;;;;;734261;189;919195;-64
2021/04/20 09:51:26;;;;;;;31.27;16.00;;;;;;;;;;725890;189;2056409;-66
2021/04/20 09:53:58;;;;;;;25.57;16.10;;;;;;;;;;730225;189;1020935;-65
2021/04/20 09:56:27;;;;;;;31.52;17.00;;;;;;;;;;735421;189;920648;-64
2021/04/20 09:58:52;;;;;;;23.37;17.80;;;;;;;;;;742483;188;918111;-63
2021/04/20 10:01:34;;;;;;;24.87;16.47;;;;;;;;;;735653;189;920773;-63
2021/04/20 10:04:11;;;;;;;27.90;17.70;;;;;;;;;;732366;189;934997;-67
2021/04/20 10:06:39;;;;;;;22.97;15.83;;;;;;;;;;733747;189;885166;-64
2021/04/20 10:09:06;;;;;;;27.10;17.97;;;;;;;;;;736602;189;921472;-64
2021/04/20 10:11:32;;;;;;;22.43;15.50;;;;;;;;;;738755;189;920619;-62
2021/04/20 10:14:00;;;;;;;34.23;22.17;;;;;;;;;;734385;189;919209;-64
2021/04/20 10:16:27;;;;;;;24.52;16.50;;;;;;;;;;734424;189;1003627;-64
2021/04/20 10:19:08;;;;;;;33.63;24.13;;;;;;;;;;740869;189;918942;-64
2021/04/20 10:21:37;;;;;;;31.80;19.83;;;;;;;;;;736906;189;920369;-66
2021/04/20 10:24:07;;;;;;;22.17;14.00;;;;;;;;;;731680;189;919063;-66
2021/04/20 10:26:54;;;;;;;30.47;17.07;;;;;;;;;;733365;189;919651;-68
2021/04/20 10:29:17;;;;;;;39.97;17.80;;;;;;;;;;732690;189;919302;-66
2021/04/20 10:31:42;;;;;;;22.90;14.40;;;;;;;;;;735302;189;918767;-66
2021/04/20 10:34:08;;;;;;;18.00;12.50;;;;;;;;;;739431;189;923030;-65
2021/04/20 10:36:34;;;;;;;22.97;11.63;;;;;;;;;;734898;189;919562;-66
2021/04/20 10:39:00;;;;;;;19.97;13.97;;;;;;;;;;731303;189;918624;-65
2021/04/20 10:41:28;;;;;;;19.10;13.30;;;;;;;;;;739794;189;919279;-66
2021/04/20 10:43:53;;;;;;;22.03;15.67;;;;;;;;;;732581;189;1121202;-66
2021/04/20 10:46:24;;;;;;;31.07;17.73;;;;;;;;;;735784;189;916641;-66
2021/04/20 10:48:45;;;;;;;16.73;9.97;;;;;;;;;;730694;189;919142;-67
2021/04/20 10:51:11;;;;;;;18.50;10.03;;;;;;;;;;738539;189;920109;-65
2021/04/20 10:53:37;;;;;;;18.90;12.77;;;;;;;;;;734497;189;920658;-65
2021/04/20 10:56:03;;;;;;;21.93;15.27;;;;;;;;;;728680;189;916959;-65
2021/04/20 10:58:29;;;;;;;14.07;12.00;;;;;;;;;;734927;189;1009438;-64
2021/04/20 11:00:56;;;;;;;15.40;10.83;;;;;;;;;;737664;189;914799;-64
2021/04/20 11:03:23;;;;;;;20.27;8.73;;;;;;;;;;735402;189;915638;-64
2021/04/20 11:05:50;;;;;;;12.65;9.93;;;;;;;;;;736112;189;918998;-64
2021/04/20 11:08:21;;;;;;;21.13;10.40;;;;;;;;;;743366;185;919733;-65
2021/04/20 11:10:47;;;;;;;10.00;7.07;;;;;;;;;;733597;189;919141;-64
2021/04/20 11:13:13;;;;;;;14.27;8.57;;;;;;;;;;736837;189;919303;-64
2021/04/20 11:15:39;;;;;;;8.23;7.07;;;;;;;;;;739492;189;919465;-65
2021/04/20 11:18:07;;;;;;;11.10;7.70;;;;;;;;;;738191;189;919499;-64
2021/04/20 11:20:36;;;;;;;21.63;9.03;;;;;;;;;;735929;189;919900;-63
2021/04/20 11:23:21;;;;;;;12.93;8.63;;;;;;;;;;734579;189;919928;-64
2021/04/20 11:25:58;;;;;;;15.90;10.57;;;;;;;;;;733850;189;918296;-64
2021/04/20 11:28:28;;;;;;;14.00;10.83;;;;;;;;;;738468;189;920253;-65
2021/04/20 11:30:54;;;;;;;16.87;12.03;;;;;;;;;;742034;185;912082;-64
2021/04/20 11:33:23;;;;;;;17.83;12.53;;;;;;;;;;733293;189;920371;-64
2021/04/20 11:35:49;;;;;;;17.17;11.15;;;;;;;;;;734006;189;919236;-65
2021/04/20 11:38:15;;;;;;;15.80;11.37;;;;;;;;;;741873;189;920275;-65
2021/04/20 11:40:42;;;;;;;19.40;12.33;;;;;;;;;;733511;189;919309;-65
2021/04/20 11:43:06;;;;;;;15.70;11.87;;;;;;;;;;735542;189;919795;-64
2021/04/20 11:45:36;;;;;;;17.13;13.00;;;;;;;;;;721486;189;2653977;-64
2021/04/20 11:48:03;;;;;;;16.53;10.37;;;;;;;;;;743927;189;918708;-64
2021/04/20 11:50:28;;;;;;;18.43;12.40;;;;;;;;;;734905;189;965032;-64
2021/04/20 11:52:54;;;;;;;23.17;11.60;;;;;;;;;;738313;189;919813;-64
2021/04/20 11:55:20;;;;;;;15.63;11.87;;;;;;;;;;738060;189;918845;-64
2021/04/20 11:57:46;;;;;;;17.27;13.40;;;;;;;;;;735221;189;916202;-65
2021/04/20 12:00:14;;;;;;;16.77;11.30;;;;;;;;;;735397;189;922999;-68
2021/04/20 12:02:40;;;;;;;17.80;12.47;;;;;;;;;;734733;189;919001;-64
2021/04/20 12:05:06;;;;;;;16.90;12.73;;;;;;;;;;743583;186;919709;-64
2021/04/20 12:07:32;;;;;;;21.90;13.25;;;;;;;;;;728545;189;1482409;-65
2021/04/20 12:09:58;;;;;;;20.57;12.90;;;;;;;;;;734032;189;919613;-64
2021/04/20 12:12:27;;;;;;;14.27;10.70;;;;;;;;;;738023;189;919322;-65
2021/04/20 12:14:52;;;;;;;17.00;13.20;;;;;;;;;;736495;189;919833;-64
2021/04/20 12:17:18;;;;;;;16.37;11.02;;;;;;;;;;731546;189;918915;-65
2021/04/20 12:19:45;;;;;;;20.90;13.50;;;;;;;;;;741048;189;919956;-65
2021/04/20 12:22:10;;;;;;;15.40;9.90;;;;;;;;;;738077;189;919348;-64
2021/04/20 12:24:36;;;;;;;11.70;9.45;;;;;;;;;;733730;189;919034;-65
2021/04/20 12:27:03;;;;;;;14.33;11.23;;;;;;;;;;731372;189;920130;-64
2021/04/20 12:29:30;;;;;;;15.53;10.90;;;;;;;;;;743502;186;1021149;-64
2021/04/20 12:31:56;;;;;;;15.90;9.73;;;;;;;;;;735820;189;919355;-64
2021/04/20 12:34:25;;;;;;;16.95;11.12;;;;;;;;;;738245;189;818174;-64
2021/04/20 12:36:51;;;;;;;22.23;10.95;;;;;;;;;;738911;189;919685;-65
2021/04/20 12:39:22;;;;;;;14.77;9.30;;;;;;;;;;731402;189;919485;-65
2021/04/20 12:41:49;;;;;;;12.70;10.27;;;;;;;;;;736223;189;920396;-67
2021/04/20 12:44:14;;;;;;;15.80;8.40;;;;;;;;;;735900;189;919403;-64
2021/04/20 12:46:40;;;;;;;17.70;9.50;;;;;;;;;;744847;189;633040;-64
2021/04/20 12:49:06;;;;;;;13.90;8.70;;;;;;;;;;742221;189;624913;-64
2021/04/20 12:51:32;;;;;;;13.23;10.60;;;;;;;;;;737863;189;626079;-64
2021/04/20 12:53:58;;;;;;;18.43;10.00;;;;;;;;;;742738;189;741187;-64
2021/04/20 12:56:26;;;;;;;16.40;9.90;;;;;;;;;;738517;189;613737;-65
2021/04/20 12:58:51;;;;;;;10.97;8.30;;;;;;;;;;732673;189;919274;-65
2021/04/20 13:01:17;;;;;;;11.30;9.17;;;;;;;;;;734218;189;919225;-64
2021/04/20 13:03:43;;;;;;;16.63;9.33;;;;;;;;;;734383;189;918979;-65
2021/04/20 13:06:09;;;;;;;8.30;7.37;;;;;;;;;;731101;189;921005;-64
2021/04/20 13:08:35;;;;;;;23.00;11.10;;;;;;;;;;730602;189;915976;-64
2021/04/20 13:11:01;;;;;;;18.33;8.50;;;;;;;;;;738783;190;1421650;-64
2021/04/20 13:13:27;;;;;;;15.10;8.53;;;;;;;;;;731621;189;918849;-64
2021/04/20 13:15:58;;;;;;;9.57;7.50;;;;;;;;;;734483;189;918764;-64
2021/04/20 13:18:24;;;;;;;8.30;6.90;;;;;;;;;;733240;189;918656;-63
2021/04/20 13:20:50;;;;;;;9.07;6.87;;;;;;;;;;734283;190;917363;-64
2021/04/20 13:23:23;;;;;;;13.90;7.83;;;;;;;;;;733611;189;916458;-64
2021/04/20 13:25:51;;;;;;;12.27;7.10;;;;;;;;;;735408;189;916002;-64
2021/04/20 13:28:17;;;;;;;10.37;6.17;;;;;;;;;;738718;189;916217;-65
2021/04/20 13:30:43;;;;;;;14.40;8.90;;;;;;;;;;735006;187;920325;-65
2021/04/20 13:33:09;;;;;;;9.73;7.20;;;;;;;;;;738570;189;919355;-65
2021/04/20 13:35:35;;;;;;;11.60;8.27;;;;;;;;;;710497;189;4588179;-63
2021/04/20 13:38:01;;;;;;;9.67;7.43;;;;;;;;;;741926;189;907154;-64
2021/04/20 13:40:26;;;;;;;14.03;8.03;;;;;;;;;;732838;189;918120;-64
2021/04/20 13:42:52;;;;;;;9.67;6.90;;;;;;;;;;733343;189;934676;-64
2021/04/20 13:45:22;;;;;;;7.80;6.37;;;;;;;;;;739778;189;919362;-64
2021/04/20 13:47:48;;;;;;;16.83;6.37;;;;;;;;;;737587;189;919117;-64
2021/04/20 13:50:14;;;;;;;6.17;4.83;;;;;;;;;;731668;189;919597;-64
2021/04/20 13:52:42;;;;;;;6.07;5.00;;;;;;;;;;736125;189;943842;-63
2021/04/20 13:55:11;;;;;;;7.63;4.53;;;;;;;;;;742114;186;920112;-64
2021/04/20 13:57:37;;;;;;;8.23;5.80;;;;;;;;;;735561;189;922872;-64